sensor_id;sensor_type;location;lat;lon;timestamp;temperature;humidity
37281;DHT22;23169;41.804;12.596;2023-03-01T00:01:19;10.10;99.90
37281;DHT22;23169;41.804;12.596;2023-03-01T00:03:49;9.60;57.20
37281;DHT22;23169;41.804;12.596;2023-03-01T00:08:45;9.10;97.60
37281;DHT22;23169;41.804;12.596;2023-03-01T00:11:27;9.60;57.00
37281;DHT22;23169;41.804;12.596;2023-03-01T00:13:57;9.50;99.90
37281;DHT22;23169;41.804;12.596;2023-03-01T00:16:29;9.80;99.90
37281;DHT22;23169;41.804;12.596;2023-03-01T00:18:57;9.20;99.90
37281;DHT22;23169;41.804;12.596;2023-03-01T00:21:27;9.30;72.00
37281;DHT22;23169;41.804;12.596;2023-03-01T00:23:57;8.70;99.90
37281;DHT22;23169;41.804;12.596;2023-03-01T00:26:25;8.90;92.40
37281;DHT22;23169;41.804;12.596;2023-03-01T00:28:53;8.80;99.90
37281;DHT22;23169;41.804;12.596;2023-03-01T00:31:27;8.50;99.90
37281;DHT22;23169;41.804;12.596;2023-03-01T00:33:56;8.60;99.90
37281;DHT22;23169;41.804;12.596;2023-03-01T00:36:31;8.40;99.90
37281;DHT22;23169;41.804;12.596;2023-03-01T00:41:28;7.90;99.90
37281;DHT22;23169;41.804;12.596;2023-03-01T00:43:55;9.10;99.90
37281;DHT22;23169;41.804;12.596;2023-03-01T00:46:25;8.50;99.90
37281;DHT22;23169;41.804;12.596;2023-03-01T00:48:53;7.90;99.90
37281;DHT22;23169;41.804;12.596;2023-03-01T00:51:21;8.40;99.90
37281;DHT22;23169;41.804;12.596;2023-03-01T00:53:54;8.60;99.90
37281;DHT22;23169;41.804;12.596;2023-03-01T00:56:22;8.80;99.90
37281;DHT22;23169;41.804;12.596;2023-03-01T01:01:24;8.50;99.90
37281;DHT22;23169;41.804;12.596;2023-03-01T01:04:02;8.40;99.90
37281;DHT22;23169;41.804;12.596;2023-03-01T01:06:38;8.40;99.90
37281;DHT22;23169;41.804;12.596;2023-03-01T01:09:08;8.40;99.90
37281;DHT22;23169;41.804;12.596;2023-03-01T01:11:36;8.40;99.90
37281;DHT22;23169;41.804;12.596;2023-03-01T01:14:05;8.40;99.90
37281;DHT22;23169;41.804;12.596;2023-03-01T01:16:34;8.40;99.90
37281;DHT22;23169;41.804;12.596;2023-03-01T01:19:02;8.60;99.90
37281;DHT22;23169;41.804;12.596;2023-03-01T01:21:32;8.40;99.90
37281;DHT22;23169;41.804;12.596;2023-03-01T01:24:02;8.30;99.90
37281;DHT22;23169;41.804;12.596;2023-03-01T01:26:33;8.40;99.90
37281;DHT22;23169;41.804;12.596;2023-03-01T01:29:03;8.40;99.90
37281;DHT22;23169;41.804;12.596;2023-03-01T01:31:34;8.00;99.90
37281;DHT22;23169;41.804;12.596;2023-03-01T01:34:07;8.40;99.90
37281;DHT22;23169;41.804;12.596;2023-03-01T01:36:36;8.50;99.90
37281;DHT22;23169;41.804;12.596;2023-03-01T01:39:05;8.50;99.90
37281;DHT22;23169;41.804;12.596;2023-03-01T01:41:34;8.60;99.90
37281;DHT22;23169;41.804;12.596;2023-03-01T01:44:18;8.60;99.90
37281;DHT22;23169;41.804;12.596;2023-03-01T01:49:47;8.60;99.90
37281;DHT22;23169;41.804;12.596;2023-03-01T01:52:27;8.70;99.90
37281;DHT22;23169;41.804;12.596;2023-03-01T01:55:06;8.60;99.90
37281;DHT22;23169;41.804;12.596;2023-03-01T01:57:47;8.80;99.90
37281;DHT22;23169;41.804;12.596;2023-03-01T02:00:22;9.10;99.90
37281;DHT22;23169;41.804;12.596;2023-03-01T02:02:56;8.90;99.90
37281;DHT22;23169;41.804;12.596;2023-03-01T02:07:58;9.00;99.90
37281;DHT22;23169;41.804;12.596;2023-03-01T02:10:28;9.40;99.90
37281;DHT22;23169;41.804;12.596;2023-03-01T02:12:56;8.90;99.90
37281;DHT22;23169;41.804;12.596;2023-03-01T02:15:25;8.90;99.90
37281;DHT22;23169;41.804;12.596;2023-03-01T02:17:54;9.30;99.90
37281;DHT22;23169;41.804;12.596;2023-03-01T02:28:29;8.70;99.90
37281;DHT22;23169;41.804;12.596;2023-03-01T02:30:57;9.50;99.90
37281;DHT22;23169;41.804;12.596;2023-03-01T02:33:45;9.00;99.90
37281;DHT22;23169;41.804;12.596;2023-03-01T02:36:19;8.40;99.90
37281;DHT22;23169;41.804;12.596;2023-03-01T02:38:51;8.90;99.90
37281;DHT22;23169;41.804;12.596;2023-03-01T02:41:21;8.90;99.90
37281;DHT22;23169;41.804;12.596;2023-03-01T02:43:51;8.90;99.90
37281;DHT22;23169;41.804;12.596;2023-03-01T02:46:23;8.90;99.90
37281;DHT22;23169;41.804;12.596;2023-03-01T02:48:56;8.90;99.90
37281;DHT22;23169;41.804;12.596;2023-03-01T02:54:28;9.10;99.90
37281;DHT22;23169;41.804;12.596;2023-03-01T02:56:57;8.80;99.90
37281;DHT22;23169;41.804;12.596;2023-03-01T02:59:30;9.50;99.90
37281;DHT22;23169;41.804;12.596;2023-03-01T03:02:01;8.90;99.90
37281;DHT22;23169;41.804;12.596;2023-03-01T03:04:31;8.70;99.90
37281;DHT22;23169;41.804;12.596;2023-03-01T03:07:00;9.40;99.90
37281;DHT22;23169;41.804;12.596;2023-03-01T03:09:29;8.70;99.90
37281;DHT22;23169;41.804;12.596;2023-03-01T03:12:02;9.30;99.90
37281;DHT22;23169;41.804;12.596;2023-03-01T03:14:31;9.10;99.90
37281;DHT22;23169;41.804;12.596;2023-03-01T03:17:02;9.20;99.90
37281;DHT22;23169;41.804;12.596;2023-03-01T03:19:35;9.20;99.90
37281;DHT22;23169;41.804;12.596;2023-03-01T03:22:04;9.20;99.90
37281;DHT22;23169;41.804;12.596;2023-03-01T03:24:34;9.20;99.90
37281;DHT22;23169;41.804;12.596;2023-03-01T03:27:07;9.20;99.90
37281;DHT22;23169;41.804;12.596;2023-03-01T03:29:37;9.90;99.90
37281;DHT22;23169;41.804;12.596;2023-03-01T03:32:05;9.20;99.90
37281;DHT22;23169;41.804;12.596;2023-03-01T03:34:37;9.20;99.90
37281;DHT22;23169;41.804;12.596;2023-03-01T03:37:05;9.10;99.90
37281;DHT22;23169;41.804;12.596;2023-03-01T03:39:55;8.90;99.90
37281;DHT22;23169;41.804;12.596;2023-03-01T03:42:25;8.70;99.90
37281;DHT22;23169;41.804;12.596;2023-03-01T03:44:54;9.30;99.90
37281;DHT22;23169;41.804;12.596;2023-03-01T03:47:22;8.80;78.70
37281;DHT22;23169;41.804;12.596;2023-03-01T03:49:53;8.90;83.50
37281;DHT22;23169;41.804;12.596;2023-03-01T03:52:21;8.90;90.90
37281;DHT22;23169;41.804;12.596;2023-03-01T03:54:50;8.80;93.70
37281;DHT22;23169;41.804;12.596;2023-03-01T03:57:18;9.00;99.90
37281;DHT22;23169;41.804;12.596;2023-03-01T03:59:47;8.80;92.20
37281;DHT22;23169;41.804;12.596;2023-03-01T04:02:15;8.90;92.90
37281;DHT22;23169;41.804;12.596;2023-03-01T04:04:50;9.10;85.90
37281;DHT22;23169;41.804;12.596;2023-03-01T04:07:18;9.00;89.80
37281;DHT22;23169;41.804;12.596;2023-03-01T04:10:08;9.10;89.30
37281;DHT22;23169;41.804;12.596;2023-03-01T04:12:55;9.20;99.90
37281;DHT22;23169;41.804;12.596;2023-03-01T04:15:27;9.10;92.20
37281;DHT22;23169;41.804;12.596;2023-03-01T04:18:00;9.10;92.80
37281;DHT22;23169;41.804;12.596;2023-03-01T04:20:32;9.20;92.30
37281;DHT22;23169;41.804;12.596;2023-03-01T04:23:20;9.20;87.60
37281;DHT22;23169;41.804;12.596;2023-03-01T04:25:55;9.20;90.00
37281;DHT22;23169;41.804;12.596;2023-03-01T04:28:35;9.20;90.50
37281;DHT22;23169;41.804;12.596;2023-03-01T04:31:10;9.20;90.30
37281;DHT22;23169;41.804;12.596;2023-03-01T04:33:52;9.70;83.20
37281;DHT22;23169;41.804;12.596;2023-03-01T04:36:22;9.10;83.40
37281;DHT22;23169;41.804;12.596;2023-03-01T04:38:55;9.10;76.40
37281;DHT22;23169;41.804;12.596;2023-03-01T04:41:28;8.70;99.90
37281;DHT22;23169;41.804;12.596;2023-03-01T04:43:57;9.20;99.90
37281;DHT22;23169;41.804;12.596;2023-03-01T04:46:29;9.30;99.90
37281;DHT22;23169;41.804;12.596;2023-03-01T04:48:57;9.00;85.20
37281;DHT22;23169;41.804;12.596;2023-03-01T04:51:26;9.00;76.30
37281;DHT22;23169;41.804;12.596;2023-03-01T04:53:55;8.70;99.90
37281;DHT22;23169;41.804;12.596;2023-03-01T04:56:23;9.00;79.20
37281;DHT22;23169;41.804;12.596;2023-03-01T04:58:53;8.90;61.70
37281;DHT22;23169;41.804;12.596;2023-03-01T05:01:22;9.00;58.00
37281;DHT22;23169;41.804;12.596;2023-03-01T05:03:51;8.90;66.40
37281;DHT22;23169;41.804;12.596;2023-03-01T05:06:20;9.20;99.90
37281;DHT22;23169;41.804;12.596;2023-03-01T05:08:49;8.90;57.10
37281;DHT22;23169;41.804;12.596;2023-03-01T05:11:19;8.90;98.40
37281;DHT22;23169;41.804;12.596;2023-03-01T05:13:47;8.80;52.80
37281;DHT22;23169;41.804;12.596;2023-03-01T05:16:18;8.80;99.90
37281;DHT22;23169;41.804;12.596;2023-03-01T05:18:48;8.80;51.10
37281;DHT22;23169;41.804;12.596;2023-03-01T05:21:20;8.20;99.90
37281;DHT22;23169;41.804;12.596;2023-03-01T05:23:48;8.70;56.50
37281;DHT22;23169;41.804;12.596;2023-03-01T05:26:18;8.70;56.70
37281;DHT22;23169;41.804;12.596;2023-03-01T05:28:48;9.00;99.90
37281;DHT22;23169;41.804;12.596;2023-03-01T05:31:16;9.00;99.90
37281;DHT22;23169;41.804;12.596;2023-03-01T05:33:44;8.60;56.70
37281;DHT22;23169;41.804;12.596;2023-03-01T05:36:13;8.70;99.90
37281;DHT22;23169;41.804;12.596;2023-03-01T05:38:42;8.50;59.50
37281;DHT22;23169;41.804;12.596;2023-03-01T05:41:15;8.50;62.40
37281;DHT22;23169;41.804;12.596;2023-03-01T05:43:45;8.80;99.90
37281;DHT22;23169;41.804;12.596;2023-03-01T05:46:19;8.40;52.40
37281;DHT22;23169;41.804;12.596;2023-03-01T05:48:51;8.60;99.90
37281;DHT22;23169;41.804;12.596;2023-03-01T05:51:20;8.30;60.40
37281;DHT22;23169;41.804;12.596;2023-03-01T05:53:50;7.90;99.90
37281;DHT22;23169;41.804;12.596;2023-03-01T05:56:22;8.30;56.30
37281;DHT22;23169;41.804;12.596;2023-03-01T05:58:52;8.40;99.90
37281;DHT22;23169;41.804;12.596;2023-03-01T06:01:21;8.50;99.90
37281;DHT22;23169;41.804;12.596;2023-03-01T06:03:51;8.40;99.90
37281;DHT22;23169;41.804;12.596;2023-03-01T06:06:26;8.60;99.90
37281;DHT22;23169;41.804;12.596;2023-03-01T06:09:02;8.50;99.90
37281;DHT22;23169;41.804;12.596;2023-03-01T06:11:38;8.70;65.40
37281;DHT22;23169;41.804;12.596;2023-03-01T06:14:08;9.00;99.90
37281;DHT22;23169;41.804;12.596;2023-03-01T06:16:37;8.80;64.30
37281;DHT22;23169;41.804;12.596;2023-03-01T06:19:05;9.70;99.90
37281;DHT22;23169;41.804;12.596;2023-03-01T06:21:33;9.00;99.30
37281;DHT22;23169;41.804;12.596;2023-03-01T06:24:01;9.40;95.60
37281;DHT22;23169;41.804;12.596;2023-03-01T06:26:30;9.10;50.60
37281;DHT22;23169;41.804;12.596;2023-03-01T06:28:58;9.10;98.10
37281;DHT22;23169;41.804;12.596;2023-03-01T06:31:26;9.20;64.50
37281;DHT22;23169;41.804;12.596;2023-03-01T06:33:56;8.90;56.60
37281;DHT22;23169;41.804;12.596;2023-03-01T06:36:25;9.40;52.90
37281;DHT22;23169;41.804;12.596;2023-03-01T06:38:53;9.50;57.90
37281;DHT22;23169;41.804;12.596;2023-03-01T06:41:21;9.60;54.60
37281;DHT22;23169;41.804;12.596;2023-03-01T06:43:50;9.60;52.70
37281;DHT22;23169;41.804;12.596;2023-03-01T06:46:18;9.70;56.50
37281;DHT22;23169;41.804;12.596;2023-03-01T06:48:47;9.80;55.20
37281;DHT22;23169;41.804;12.596;2023-03-01T06:51:15;9.90;54.00
37281;DHT22;23169;41.804;12.596;2023-03-01T06:53:46;10.10;99.90
37281;DHT22;23169;41.804;12.596;2023-03-01T06:56:14;10.00;55.50
37281;DHT22;23169;41.804;12.596;2023-03-01T06:58:43;10.00;52.30
37281;DHT22;23169;41.804;12.596;2023-03-01T07:01:14;10.10;52.80
37281;DHT22;23169;41.804;12.596;2023-03-01T07:03:42;10.20;50.20
37281;DHT22;23169;41.804;12.596;2023-03-01T07:06:12;11.60;51.80
37281;DHT22;23169;41.804;12.596;2023-03-01T07:08:41;10.40;54.40
37281;DHT22;23169;41.804;12.596;2023-03-01T07:11:09;10.40;48.40
37281;DHT22;23169;41.804;12.596;2023-03-01T07:13:37;10.50;49.30
37281;DHT22;23169;41.804;12.596;2023-03-01T07:16:08;10.70;46.80
37281;DHT22;23169;41.804;12.596;2023-03-01T07:18:38;10.80;40.20
37281;DHT22;23169;41.804;12.596;2023-03-01T07:21:11;11.00;31.80
37281;DHT22;23169;41.804;12.596;2023-03-01T07:23:41;11.40;37.30
37281;DHT22;23169;41.804;12.596;2023-03-01T07:26:09;11.60;26.30
37281;DHT22;23169;41.804;12.596;2023-03-01T07:28:44;11.70;24.40
37281;DHT22;23169;41.804;12.596;2023-03-01T07:31:13;11.80;19.10
37281;DHT22;23169;41.804;12.596;2023-03-01T07:33:41;11.90;14.90
37281;DHT22;23169;41.804;12.596;2023-03-01T07:36:10;11.80;12.40
37281;DHT22;23169;41.804;12.596;2023-03-01T07:38:39;11.90;10.90
37281;DHT22;23169;41.804;12.596;2023-03-01T07:41:08;11.80;9.50
37281;DHT22;23169;41.804;12.596;2023-03-01T07:43:36;11.80;9.60
37281;DHT22;23169;41.804;12.596;2023-03-01T07:46:05;11.60;3.30
37281;DHT22;23169;41.804;12.596;2023-03-01T07:48:35;11.40;3.70
37281;DHT22;23169;41.804;12.596;2023-03-01T07:51:05;11.30;1.70
37281;DHT22;23169;41.804;12.596;2023-03-01T07:53:34;11.30;4.40
37281;DHT22;23169;41.804;12.596;2023-03-01T07:56:13;11.30;2.40
37281;DHT22;23169;41.804;12.596;2023-03-01T07:58:43;11.30;2.70
37281;DHT22;23169;41.804;12.596;2023-03-01T08:01:14;11.30;2.10
37281;DHT22;23169;41.804;12.596;2023-03-01T08:03:43;11.50;5.60
37281;DHT22;23169;41.804;12.596;2023-03-01T08:06:16;11.20;1.00
37281;DHT22;23169;41.804;12.596;2023-03-01T08:08:45;11.30;2.40
37281;DHT22;23169;41.804;12.596;2023-03-01T08:11:14;11.40;4.50
37281;DHT22;23169;41.804;12.596;2023-03-01T08:13:43;11.60;11.60
37281;DHT22;23169;41.804;12.596;2023-03-01T08:16:13;11.80;22.60
37281;DHT22;23169;41.804;12.596;2023-03-01T08:18:43;11.60;2.50
37281;DHT22;23169;41.804;12.596;2023-03-01T08:21:14;11.80;5.60
37281;DHT22;23169;41.804;12.596;2023-03-01T08:23:43;11.90;6.80
37281;DHT22;23169;41.804;12.596;2023-03-01T08:26:15;12.10;36.60
37281;DHT22;23169;41.804;12.596;2023-03-01T08:28:45;11.60;1.00
37281;DHT22;23169;41.804;12.596;2023-03-01T08:33:43;11.20;2.30
37281;DHT22;23169;41.804;12.596;2023-03-01T08:36:12;11.30;2.70
37281;DHT22;23169;41.804;12.596;2023-03-01T08:38:41;11.40;6.50
37281;DHT22;23169;41.804;12.596;2023-03-01T08:41:09;11.50;2.60
37281;DHT22;23169;41.804;12.596;2023-03-01T08:43:38;11.70;3.90
37281;DHT22;23169;41.804;12.596;2023-03-01T08:46:07;11.80;2.70
37281;DHT22;23169;41.804;12.596;2023-03-01T08:48:38;11.90;3.20
37281;DHT22;23169;41.804;12.596;2023-03-01T08:51:08;12.00;2.60
37281;DHT22;23169;41.804;12.596;2023-03-01T08:53:37;11.90;2.50
37281;DHT22;23169;41.804;12.596;2023-03-01T08:56:05;11.70;1.00
37281;DHT22;23169;41.804;12.596;2023-03-01T08:58:35;11.60;1.00
37281;DHT22;23169;41.804;12.596;2023-03-01T09:01:11;11.20;1.00
37281;DHT22;23169;41.804;12.596;2023-03-01T09:03:39;10.80;1.00
37281;DHT22;23169;41.804;12.596;2023-03-01T09:06:08;10.40;2.60
37281;DHT22;23169;41.804;12.596;2023-03-01T09:08:40;10.10;6.40
37281;DHT22;23169;41.804;12.596;2023-03-01T09:11:11;9.90;9.90
37281;DHT22;23169;41.804;12.596;2023-03-01T09:13:39;9.80;11.40
37281;DHT22;23169;41.804;12.596;2023-03-01T09:16:08;9.80;14.30
37281;DHT22;23169;41.804;12.596;2023-03-01T09:18:37;9.80;18.00
37281;DHT22;23169;41.804;12.596;2023-03-01T09:21:10;10.00;87.90
37281;DHT22;23169;41.804;12.596;2023-03-01T09:23:42;9.80;20.70
37281;DHT22;23169;41.804;12.596;2023-03-01T09:26:16;9.90;20.30
37281;DHT22;23169;41.804;12.596;2023-03-01T09:28:46;10.10;21.20
37281;DHT22;23169;41.804;12.596;2023-03-01T09:31:16;10.20;19.30
37281;DHT22;23169;41.804;12.596;2023-03-01T09:33:48;10.40;19.30
37281;DHT22;23169;41.804;12.596;2023-03-01T09:36:19;10.70;23.50
37281;DHT22;23169;41.804;12.596;2023-03-01T09:38:49;10.90;21.60
37281;DHT22;23169;41.804;12.596;2023-03-01T09:43:53;10.60;18.90
37281;DHT22;23169;41.804;12.596;2023-03-01T09:46:25;10.60;16.80
37281;DHT22;23169;41.804;12.596;2023-03-01T09:48:55;10.80;20.50
37281;DHT22;23169;41.804;12.596;2023-03-01T09:51:29;10.80;15.20
37281;DHT22;23169;41.804;12.596;2023-03-01T09:53:58;11.30;64.70
37281;DHT22;23169;41.804;12.596;2023-03-01T09:56:53;11.10;18.90
37281;DHT22;23169;41.804;12.596;2023-03-01T09:59:42;11.40;19.40
37281;DHT22;23169;41.804;12.596;2023-03-01T10:02:41;12.00;18.30
37281;DHT22;23169;41.804;12.596;2023-03-01T10:10:38;12.90;15.60
37281;DHT22;23169;41.804;12.596;2023-03-01T10:17:18;13.40;9.70
37281;DHT22;23169;41.804;12.596;2023-03-01T10:19:40;13.60;4.90
37281;DHT22;23169;41.804;12.596;2023-03-01T10:22:28;13.60;2.70
37281;DHT22;23169;41.804;12.596;2023-03-01T10:24:58;13.30;1.80
37281;DHT22;23169;41.804;12.596;2023-03-01T10:33:24;13.40;4.90
37281;DHT22;23169;41.804;12.596;2023-03-01T10:35:53;13.70;4.50
37281;DHT22;23169;41.804;12.596;2023-03-01T10:38:22;13.70;2.30
37281;DHT22;23169;41.804;12.596;2023-03-01T10:43:23;14.00;2.50
37281;DHT22;23169;41.804;12.596;2023-03-01T10:45:52;14.20;1.00
37281;DHT22;23169;41.804;12.596;2023-03-01T10:48:26;14.40;1.00
37281;DHT22;23169;41.804;12.596;2023-03-01T10:53:28;14.20;1.00
37281;DHT22;23169;41.804;12.596;2023-03-01T10:56:09;14.40;1.00
37281;DHT22;23169;41.804;12.596;2023-03-01T10:58:40;14.30;1.00
37281;DHT22;23169;41.804;12.596;2023-03-01T11:01:24;14.10;1.00
37281;DHT22;23169;41.804;12.596;2023-03-01T11:06:41;14.40;1.00
37281;DHT22;23169;41.804;12.596;2023-03-01T11:09:18;14.20;1.00
37281;DHT22;23169;41.804;12.596;2023-03-01T11:11:52;14.40;1.00
37281;DHT22;23169;41.804;12.596;2023-03-01T11:14:32;14.60;1.00
37281;DHT22;23169;41.804;12.596;2023-03-01T11:17:11;14.70;1.00
37281;DHT22;23169;41.804;12.596;2023-03-01T11:19:40;14.60;1.00
37281;DHT22;23169;41.804;12.596;2023-03-01T11:22:12;14.20;1.00
37281;DHT22;23169;41.804;12.596;2023-03-01T11:24:50;14.30;1.00
37281;DHT22;23169;41.804;12.596;2023-03-01T11:27:26;14.20;1.00
37281;DHT22;23169;41.804;12.596;2023-03-01T11:38:34;15.20;1.00
37281;DHT22;23169;41.804;12.596;2023-03-01T11:44:03;16.20;1.00
37281;DHT22;23169;41.804;12.596;2023-03-01T12:09:17;15.80;1.00
37281;DHT22;23169;41.804;12.596;2023-03-01T12:12:11;15.00;1.00
37281;DHT22;23169;41.804;12.596;2023-03-01T12:15:31;15.00;1.00
37281;DHT22;23169;41.804;12.596;2023-03-01T12:18:13;15.00;1.00
37281;DHT22;23169;41.804;12.596;2023-03-01T12:21:04;14.90;1.00
37281;DHT22;23169;41.804;12.596;2023-03-01T12:29:35;15.90;1.00
37281;DHT22;23169;41.804;12.596;2023-03-01T12:35:00;16.20;1.00
37281;DHT22;23169;41.804;12.596;2023-03-01T12:37:52;16.40;1.00
37281;DHT22;23169;41.804;12.596;2023-03-01T12:48:48;15.50;1.00
37281;DHT22;23169;41.804;12.596;2023-03-01T12:51:24;15.00;1.00
37281;DHT22;23169;41.804;12.596;2023-03-01T12:53:55;14.60;1.00
37281;DHT22;23169;41.804;12.596;2023-03-01T12:56:29;14.30;1.00
37281;DHT22;23169;41.804;12.596;2023-03-01T13:13:02;13.00;1.00
37281;DHT22;23169;41.804;12.596;2023-03-01T13:15:36;12.70;1.00
37281;DHT22;23169;41.804;12.596;2023-03-01T13:18:29;12.50;1.00
37281;DHT22;23169;41.804;12.596;2023-03-01T13:21:00;12.70;1.00
37281;DHT22;23169;41.804;12.596;2023-03-01T13:23:34;12.80;1.00
37281;DHT22;23169;41.804;12.596;2023-03-01T13:26:07;13.00;1.00
37281;DHT22;23169;41.804;12.596;2023-03-01T13:33:48;16.60;1.00
37281;DHT22;23169;41.804;12.596;2023-03-01T13:39:00;18.00;1.00
37281;DHT22;23169;41.804;12.596;2023-03-01T13:47:17;19.10;1.00
37281;DHT22;23169;41.804;12.596;2023-03-01T13:55:00;17.20;1.00
37281;DHT22;23169;41.804;12.596;2023-03-01T13:57:36;16.70;1.00
37281;DHT22;23169;41.804;12.596;2023-03-01T14:00:23;16.70;1.00
37281;DHT22;23169;41.804;12.596;2023-03-01T14:05:34;16.70;1.00
37281;DHT22;23169;41.804;12.596;2023-03-01T14:08:13;16.40;1.00
37281;DHT22;23169;41.804;12.596;2023-03-01T14:14:10;16.00;1.00
37281;DHT22;23169;41.804;12.596;2023-03-01T14:19:27;17.00;1.00
37281;DHT22;23169;41.804;12.596;2023-03-01T14:22:28;17.20;1.00
37281;DHT22;23169;41.804;12.596;2023-03-01T14:25:06;17.40;1.00
37281;DHT22;23169;41.804;12.596;2023-03-01T14:27:43;18.10;1.00
37281;DHT22;23169;41.804;12.596;2023-03-01T14:30:20;18.70;1.00
37281;DHT22;23169;41.804;12.596;2023-03-01T14:32:56;18.60;1.00
37281;DHT22;23169;41.804;12.596;2023-03-01T14:35:34;18.90;1.00
37281;DHT22;23169;41.804;12.596;2023-03-01T14:38:03;19.60;1.00
37281;DHT22;23169;41.804;12.596;2023-03-01T14:40:36;19.90;1.00
37281;DHT22;23169;41.804;12.596;2023-03-01T14:43:17;19.60;1.00
37281;DHT22;23169;41.804;12.596;2023-03-01T14:45:49;19.00;1.00
37281;DHT22;23169;41.804;12.596;2023-03-01T14:48:18;18.50;1.00
37281;DHT22;23169;41.804;12.596;2023-03-01T14:50:47;18.00;1.00
37281;DHT22;23169;41.804;12.596;2023-03-01T14:53:23;17.70;1.00
37281;DHT22;23169;41.804;12.596;2023-03-01T14:55:55;17.00;1.00
37281;DHT22;23169;41.804;12.596;2023-03-01T14:58:25;16.90;1.00
37281;DHT22;23169;41.804;12.596;2023-03-01T15:01:02;16.60;1.00
37281;DHT22;23169;41.804;12.596;2023-03-01T15:03:40;16.20;1.00
37281;DHT22;23169;41.804;12.596;2023-03-01T15:06:10;15.90;1.00
37281;DHT22;23169;41.804;12.596;2023-03-01T15:08:45;15.40;1.00
37281;DHT22;23169;41.804;12.596;2023-03-01T15:11:31;15.20;1.00
37281;DHT22;23169;41.804;12.596;2023-03-01T15:14:00;14.70;1.00
37281;DHT22;23169;41.804;12.596;2023-03-01T15:16:31;14.60;1.00
37281;DHT22;23169;41.804;12.596;2023-03-01T15:19:02;14.70;1.00
37281;DHT22;23169;41.804;12.596;2023-03-01T15:21:35;14.60;1.00
37281;DHT22;23169;41.804;12.596;2023-03-01T15:27:04;14.70;1.00
37281;DHT22;23169;41.804;12.596;2023-03-01T15:29:36;14.60;1.00
37281;DHT22;23169;41.804;12.596;2023-03-01T15:32:34;14.50;1.00
37281;DHT22;23169;41.804;12.596;2023-03-01T15:41:26;14.40;1.00
37281;DHT22;23169;41.804;12.596;2023-03-01T15:43:54;15.70;1.00
37281;DHT22;23169;41.804;12.596;2023-03-01T15:46:33;16.20;1.00
37281;DHT22;23169;41.804;12.596;2023-03-01T15:49:46;16.90;1.00
37281;DHT22;23169;41.804;12.596;2023-03-01T15:51:55;17.10;1.00
37281;DHT22;23169;41.804;12.596;2023-03-01T15:54:25;17.10;1.00
37281;DHT22;23169;41.804;12.596;2023-03-01T15:56:54;16.90;1.00
37281;DHT22;23169;41.804;12.596;2023-03-01T15:59:23;17.00;1.00
37281;DHT22;23169;41.804;12.596;2023-03-01T16:01:52;17.30;1.00
37281;DHT22;23169;41.804;12.596;2023-03-01T16:04:20;17.40;1.00
37281;DHT22;23169;41.804;12.596;2023-03-01T16:06:52;17.70;1.00
37281;DHT22;23169;41.804;12.596;2023-03-01T16:09:25;17.50;1.00
37281;DHT22;23169;41.804;12.596;2023-03-01T16:11:54;17.40;1.00
37281;DHT22;23169;41.804;12.596;2023-03-01T16:14:22;16.90;1.00
37281;DHT22;23169;41.804;12.596;2023-03-01T16:16:52;16.80;1.00
37281;DHT22;23169;41.804;12.596;2023-03-01T16:19:21;17.10;1.00
37281;DHT22;23169;41.804;12.596;2023-03-01T16:21:49;17.20;1.00
37281;DHT22;23169;41.804;12.596;2023-03-01T16:24:19;17.10;1.00
37281;DHT22;23169;41.804;12.596;2023-03-01T16:26:47;17.00;1.00
37281;DHT22;23169;41.804;12.596;2023-03-01T16:29:16;17.10;1.00
37281;DHT22;23169;41.804;12.596;2023-03-01T16:31:45;16.80;1.00
37281;DHT22;23169;41.804;12.596;2023-03-01T16:34:13;15.90;1.00
37281;DHT22;23169;41.804;12.596;2023-03-01T16:36:43;15.20;1.00
37281;DHT22;23169;41.804;12.596;2023-03-01T16:39:11;14.50;1.00
37281;DHT22;23169;41.804;12.596;2023-03-01T16:41:39;14.10;1.00
37281;DHT22;23169;41.804;12.596;2023-03-01T16:44:07;13.50;1.00
37281;DHT22;23169;41.804;12.596;2023-03-01T16:46:36;13.30;1.00
37281;DHT22;23169;41.804;12.596;2023-03-01T16:49:04;13.20;1.00
37281;DHT22;23169;41.804;12.596;2023-03-01T16:51:32;13.00;1.00
37281;DHT22;23169;41.804;12.596;2023-03-01T16:54:03;12.90;1.00
37281;DHT22;23169;41.804;12.596;2023-03-01T16:56:34;12.90;1.00
37281;DHT22;23169;41.804;12.596;2023-03-01T16:59:06;12.90;1.00
37281;DHT22;23169;41.804;12.596;2023-03-01T17:01:34;12.90;1.00
37281;DHT22;23169;41.804;12.596;2023-03-01T17:04:11;12.80;1.00
37281;DHT22;23169;41.804;12.596;2023-03-01T17:06:41;12.80;1.00
37281;DHT22;23169;41.804;12.596;2023-03-01T17:09:09;12.70;1.00
37281;DHT22;23169;41.804;12.596;2023-03-01T17:11:37;12.70;1.00
37281;DHT22;23169;41.804;12.596;2023-03-01T17:14:06;12.70;1.00
37281;DHT22;23169;41.804;12.596;2023-03-01T17:16:36;12.70;1.00
37281;DHT22;23169;41.804;12.596;2023-03-01T17:19:04;12.70;1.00
37281;DHT22;23169;41.804;12.596;2023-03-01T17:21:33;12.60;1.00
37281;DHT22;23169;41.804;12.596;2023-03-01T17:24:01;12.70;1.00
37281;DHT22;23169;41.804;12.596;2023-03-01T17:26:33;12.60;1.00
37281;DHT22;23169;41.804;12.596;2023-03-01T17:29:02;12.60;1.00
37281;DHT22;23169;41.804;12.596;2023-03-01T17:31:33;12.50;1.00
37281;DHT22;23169;41.804;12.596;2023-03-01T17:34:01;12.40;1.00
37281;DHT22;23169;41.804;12.596;2023-03-01T17:36:31;12.40;1.00
37281;DHT22;23169;41.804;12.596;2023-03-01T17:39:03;12.30;1.00
37281;DHT22;23169;41.804;12.596;2023-03-01T17:41:31;12.20;1.00
37281;DHT22;23169;41.804;12.596;2023-03-01T17:44:00;12.10;1.00
37281;DHT22;23169;41.804;12.596;2023-03-01T17:46:29;12.10;1.00
37281;DHT22;23169;41.804;12.596;2023-03-01T17:48:58;12.10;1.00
37281;DHT22;23169;41.804;12.596;2023-03-01T17:51:26;12.00;1.00
37281;DHT22;23169;41.804;12.596;2023-03-01T17:53:55;11.90;1.00
37281;DHT22;23169;41.804;12.596;2023-03-01T17:56:23;11.80;1.00
37281;DHT22;23169;41.804;12.596;2023-03-01T17:58:52;11.70;1.00
37281;DHT22;23169;41.804;12.596;2023-03-01T18:01:21;11.70;1.00
37281;DHT22;23169;41.804;12.596;2023-03-01T18:03:51;11.60;1.00
37281;DHT22;23169;41.804;12.596;2023-03-01T18:06:23;11.50;1.00
37281;DHT22;23169;41.804;12.596;2023-03-01T18:08:53;11.50;17.10
37281;DHT22;23169;41.804;12.596;2023-03-01T18:11:28;11.40;1.00
37281;DHT22;23169;41.804;12.596;2023-03-01T18:13:59;11.40;1.00
37281;DHT22;23169;41.804;12.596;2023-03-01T18:16:28;11.40;1.00
37281;DHT22;23169;41.804;12.596;2023-03-01T18:19:01;11.50;1.00
37281;DHT22;23169;41.804;12.596;2023-03-01T18:21:30;11.50;1.00
37281;DHT22;23169;41.804;12.596;2023-03-01T18:23:59;11.50;1.00
37281;DHT22;23169;41.804;12.596;2023-03-01T18:26:28;11.50;1.00
37281;DHT22;23169;41.804;12.596;2023-03-01T18:28:57;11.40;1.00
37281;DHT22;23169;41.804;12.596;2023-03-01T18:31:28;11.50;1.00
37281;DHT22;23169;41.804;12.596;2023-03-01T18:34:00;10.70;1.00